Time;durP1;ratioP1;P1;durP2;ratioP2;P2;SDS_P1;SDS_P2;PMS_P1;PMS_P2;Temp;Humidity;BMP_temperature;BMP_pressure;BME280_temperature;BME280_humidity;BME280_pressure;Samples;Min_cycle;Max_cycle;Signal;HPM_P1;HPM_P2
2022/06/04 00:02:21;;;;;;;3.20;3.00;;;;;;;16.99;100.00;96411.75;4912654;28;101842;-66
2022/06/04 00:04:49;;;;;;;5.93;3.20;;;;;;;16.93;100.00;96404.84;4928869;28;105448;-66
2022/06/04 00:07:16;;;;;;;3.77;2.87;;;;;;;16.85;100.00;96397.47;4933958;28;102814;-66
2022/06/04 00:15:29;;;;;;;3.53;2.90;;;;;;;16.81;100.00;96401.81;4929723;28;105348;-66
2022/06/04 00:15:31;;;;;;;3.10;2.80;;;;;;;16.63;100.00;96410.63;4917689;28;101864;-66
2022/06/04 00:18:02;;;;;;;3.60;3.17;;;;;;;16.66;100.00;96404.69;4899899;28;104958;-66
2022/06/04 00:20:30;;;;;;;3.83;2.87;;;;;;;16.59;100.00;96406.91;4910536;28;105633;-66
2022/06/04 00:22:59;;;;;;;6.90;3.00;;;;;;;16.37;100.00;96409.31;4913470;28;101947;-66
2022/06/04 00:25:26;;;;;;;3.07;2.87;;;;;;;16.45;100.00;96406.03;4930510;28;105188;-66
2022/06/04 00:27:57;;;;;;;3.27;3.00;;;;;;;16.43;100.00;96410.88;4920153;28;105644;-66
2022/06/04 00:30:25;;;;;;;3.50;2.93;;;;;;;16.52;100.00;96414.53;4916139;28;101958;-66
2022/06/04 00:32:52;;;;;;;3.23;2.93;;;;;;;16.51;100.00;96404.88;4929353;28;105626;-66
2022/06/04 00:35:29;;;;;;;3.20;3.00;;;;;;;16.43;100.00;96408.19;4929465;28;101899;-66
2022/06/04 00:37:57;;;;;;;3.30;2.93;;;;;;;16.41;100.00;96405.00;4926118;28;105260;-66
2022/06/04 00:40:33;;;;;;;2.97;2.77;;;;;;;16.33;100.00;96397.53;4930237;28;103125;-66
2022/06/04 00:43:03;;;;;;;3.50;3.20;;;;;;;16.19;100.00;96391.28;4923335;28;102108;-66
2022/06/04 00:49:15;;;;;;;3.10;2.90;;;;;;;16.03;100.00;96392.50;4924892;28;103149;-66
2022/06/04 00:51:45;;;;;;;3.10;2.90;;;;;;;15.90;100.00;96395.84;4900180;28;101804;-66
2022/06/04 00:58:03;;;;;;;3.00;2.60;;;;;;;15.94;100.00;96399.56;4926690;28;101880;-66
2022/06/04 01:00:37;;;;;;;3.43;3.13;;;;;;;16.00;100.00;96393.06;4930078;28;102639;-66
2022/06/04 01:03:26;;;;;;;3.90;3.30;;;;;;;15.85;100.00;96401.25;4919918;28;105390;-66
2022/06/04 01:06:16;;;;;;;3.37;3.07;;;;;;;15.79;100.00;96399.72;4930249;28;102362;-66
2022/06/04 01:09:19;;;;;;;4.10;3.67;;;;;;;15.82;100.00;96408.00;4915328;28;102683;-66
2022/06/04 01:12:10;;;;;;;3.40;3.13;;;;;;;15.84;100.00;96407.69;4926586;28;106080;-66
2022/06/04 01:18:17;;;;;;;3.47;3.10;;;;;;;15.80;100.00;96404.00;4915168;28;106883;-66
2022/06/04 01:20:52;;;;;;;3.37;3.07;;;;;;;15.83;100.00;96398.88;4922204;28;105732;-66
2022/06/04 01:23:49;;;;;;;3.90;3.60;;;;;;;15.83;100.00;96392.69;4931695;28;105198;-66
2022/06/04 01:27:09;;;;;;;2.93;2.73;;;;;;;15.73;100.00;96398.16;4915774;28;105399;-66
2022/06/04 01:29:46;;;;;;;3.40;3.10;;;;;;;15.68;100.00;96396.31;4917513;28;102263;-66
2022/06/04 01:32:21;;;;;;;3.40;3.10;;;;;;;15.61;100.00;96400.41;4917850;28;104132;-66
2022/06/04 01:35:13;;;;;;;3.37;2.97;;;;;;;15.54;100.00;96402.63;4922895;28;105904;-66
2022/06/04 01:37:47;;;;;;;3.37;3.17;;;;;;;15.50;100.00;96404.25;4929095;28;101948;-66
2022/06/04 01:43:07;;;;;;;2.90;2.70;;;;;;;15.35;100.00;96391.78;4926447;28;102939;-66
2022/06/04 01:46:01;;;;;;;4.57;3.10;;;;;;;15.32;100.00;96392.31;4921532;28;103597;-66
2022/06/04 01:51:57;;;;;;;3.67;3.37;;;;;;;15.13;100.00;96393.25;4912806;28;102341;-66
2022/06/04 01:54:39;;;;;;;4.03;2.70;;;;;;;15.16;100.00;96392.69;4917633;28;102547;-66
2022/06/04 01:57:13;;;;;;;3.13;2.93;;;;;;;15.20;100.00;96391.06;4923399;28;105545;-66
2022/06/04 01:59:45;;;;;;;3.80;2.83;;;;;;;15.27;100.00;96389.66;4923332;28;101776;-66
2022/06/04 02:02:20;;;;;;;3.67;3.23;;;;;;;15.16;100.00;96387.34;4916117;28;105346;-66
2022/06/04 02:04:52;;;;;;;3.27;2.90;;;;;;;15.09;100.00;96384.19;4931435;28;105430;-66
2022/06/04 02:07:33;;;;;;;3.53;2.80;;;;;;;15.07;100.00;96389.00;4931616;28;101804;-66
2022/06/04 02:10:09;;;;;;;4.70;2.57;;;;;;;15.09;100.00;96386.88;4931260;28;105784;-66
2022/06/04 02:12:38;;;;;;;2.80;2.60;;;;;;;14.93;100.00;96385.38;4917382;28;101937;-66
2022/06/04 02:15:18;;;;;;;2.97;2.77;;;;;;;14.95;100.00;96383.19;4914009;28;104151;-66
2022/06/04 02:17:57;;;;;;;3.40;2.77;;;;;;;14.98;100.00;96380.75;4926236;28;102917;-66
2022/06/04 02:20:26;;;;;;;3.43;3.10;;;;;;;14.88;100.00;96377.38;4931932;28;101920;-66
2022/06/04 02:22:55;;;;;;;3.47;3.20;;;;;;;14.86;100.00;96383.00;4915352;28;103662;-66
2022/06/04 02:25:25;;;;;;;3.87;3.10;;;;;;;14.91;100.00;96379.47;4928692;28;105414;-66
2022/06/04 02:27:53;;;;;;;3.60;3.30;;;;;;;14.93;100.00;96380.00;4929515;28;101972;-66
2022/06/04 02:30:22;;;;;;;3.37;3.10;;;;;;;14.88;100.00;96380.03;4934466;28;105389;-66
2022/06/04 02:33:03;;;;;;;2.67;2.47;;;;;;;14.71;100.00;96379.59;4919872;28;101835;-66
2022/06/04 02:35:41;;;;;;;2.70;2.50;;;;;;;14.69;100.00;96381.75;4912811;28;105362;-66
2022/06/04 02:38:20;;;;;;;3.00;2.67;;;;;;;14.62;100.00;96386.59;4923045;28;106280;-66
2022/06/04 02:40:53;;;;;;;3.20;3.00;;;;;;;14.55;100.00;96386.09;4915274;28;102131;-66
2022/06/04 02:43:29;;;;;;;3.00;2.70;;;;;;;14.61;100.00;96385.00;4923172;28;105269;-66
2022/06/04 02:46:38;;;;;;;3.33;3.07;;;;;;;14.64;100.00;96389.78;4931167;28;105733;-66
2022/06/04 02:49:45;;;;;;;3.50;3.17;;;;;;;14.64;100.00;96384.44;4916050;28;101904;-66
2022/06/04 02:52:16;;;;;;;3.30;3.00;;;;;;;14.57;100.00;96390.13;4923207;28;106178;-66
2022/06/04 02:54:52;;;;;;;5.03;2.93;;;;;;;14.61;100.00;96387.69;4921542;28;105765;-66
2022/06/04 02:57:20;;;;;;;3.40;3.10;;;;;;;14.62;100.00;96390.09;4931558;28;105203;-66
2022/06/04 02:59:50;;;;;;;3.90;3.33;;;;;;;14.60;100.00;96394.91;4930919;28;106277;-66
2022/06/04 03:02:20;;;;;;;3.53;3.23;;;;;;;14.48;100.00;96393.59;4916367;28;102423;-66
2022/06/04 03:04:52;;;;;;;3.80;3.50;;;;;;;14.52;100.00;96381.28;4931108;28;105211;-66
2022/06/04 03:07:23;;;;;;;3.80;3.50;;;;;;;14.49;100.00;96389.88;4914859;28;105894;-66
2022/06/04 03:09:54;;;;;;;3.40;3.10;;;;;;;14.53;100.00;96391.72;4931513;28;101821;-66
2022/06/04 03:12:22;;;;;;;3.43;3.20;;;;;;;14.50;100.00;96394.16;4928950;28;105615;-66
2022/06/04 03:14:51;;;;;;;3.27;3.00;;;;;;;14.52;100.00;96390.13;4930681;28;106093;-66
2022/06/04 03:17:19;;;;;;;4.37;2.80;;;;;;;14.54;100.00;96404.03;4932506;28;102128;-66
2022/06/04 03:19:46;;;;;;;3.40;3.17;;;;;;;14.52;100.00;96402.69;4912796;28;105806;-66
2022/06/04 03:22:17;;;;;;;5.23;3.60;;;;;;;14.53;100.00;96404.28;4912073;28;103104;-66
2022/06/04 03:25:13;;;;;;;3.43;3.13;;;;;;;14.47;100.00;96394.69;4915624;28;104837;-66
2022/06/04 03:27:40;;;;;;;5.00;3.90;;;;;;;14.54;100.00;96406.69;4923329;28;103173;-66
2022/06/04 03:30:10;;;;;;;3.70;3.40;;;;;;;14.57;100.00;96405.34;4930876;28;102095;-66
2022/06/04 03:32:38;;;;;;;4.17;3.77;;;;;;;14.45;100.00;96405.66;4915353;28;105579;-66
2022/06/04 03:35:42;;;;;;;4.43;3.77;;;;;;;14.52;100.00;96413.41;4930548;28;105369;-66
2022/06/04 03:38:12;;;;;;;4.20;3.80;;;;;;;14.54;100.00;96408.56;4909735;28;101973;-66
2022/06/04 03:40:40;;;;;;;4.87;4.30;;;;;;;14.54;100.00;96408.56;4914278;28;104837;-66
2022/06/04 03:43:07;;;;;;;4.20;3.80;;;;;;;14.54;100.00;96416.59;4919346;28;102160;-66
2022/06/04 03:45:38;;;;;;;5.67;4.43;;;;;;;14.65;100.00;96412.81;4911603;28;104243;-66
2022/06/04 03:48:08;;;;;;;4.73;4.27;;;;;;;14.59;100.00;96419.25;4926159;28;105384;-66
2022/06/04 03:50:36;;;;;;;6.40;4.80;;;;;;;14.71;100.00;96419.75;4925718;28;103759;-66
2022/06/04 03:53:04;;;;;;;6.60;5.53;;;;;;;14.79;100.00;96422.66;4921239;28;105210;-66
2022/06/04 03:55:47;;;;;;;5.93;5.40;;;;;;;14.87;100.00;96415.94;4929305;28;105736;-66
2022/06/04 03:58:15;;;;;;;6.70;5.20;;;;;;;14.96;100.00;96423.09;4927850;28;101765;-66
2022/06/04 04:00:45;;;;;;;7.13;5.47;;;;;;;15.02;100.00;96426.53;4913195;28;104075;-66
2022/06/04 04:03:14;;;;;;;5.10;4.70;;;;;;;15.07;100.00;96421.16;4920772;28;102063;-66
2022/06/04 04:05:47;;;;;;;6.90;4.93;;;;;;;15.17;100.00;96421.91;4912543;28;105231;-66
2022/06/04 04:08:15;;;;;;;4.80;4.40;;;;;;;15.21;100.00;96417.56;4927619;28;102896;-66
2022/06/04 04:10:44;;;;;;;5.40;5.00;;;;;;;15.25;100.00;96412.44;4911087;28;102059;-66
2022/06/04 04:13:14;;;;;;;5.40;5.00;;;;;;;15.17;100.00;96413.06;4919875;28;105500;-66
2022/06/04 04:15:52;;;;;;;4.87;4.50;;;;;;;15.17;100.00;96419.22;4912948;28;105728;-66
2022/06/04 04:18:39;;;;;;;7.27;5.27;;;;;;;15.25;100.00;96417.81;4927989;28;101842;-66
2022/06/04 04:21:08;;;;;;;4.90;4.50;;;;;;;15.26;100.00;96412.16;4931666;28;102668;-66
2022/06/04 04:23:36;;;;;;;4.70;4.30;;;;;;;15.33;100.00;96404.66;4933348;28;105412;-66
2022/06/04 04:26:14;;;;;;;4.87;4.40;;;;;;;15.39;100.00;96408.91;4930306;28;105244;-66
2022/06/04 04:28:44;;;;;;;5.30;4.40;;;;;;;15.36;100.00;96406.78;4929664;28;105654;-66
2022/06/04 04:31:14;;;;;;;6.17;4.70;;;;;;;15.42;100.00;96407.56;4930362;28;101878;-66
2022/06/04 04:33:42;;;;;;;4.73;4.33;;;;;;;15.57;100.00;96416.25;4931867;28;105388;-66
2022/06/04 04:36:52;;;;;;;4.97;4.57;;;;;;;15.77;100.00;96409.91;4933176;28;105648;-65
2022/06/04 04:39:20;;;;;;;5.00;4.60;;;;;;;15.94;100.00;96415.66;4933861;28;101982;-66
2022/06/04 04:41:47;;;;;;;5.80;5.30;;;;;;;16.09;100.00;96412.84;4933554;28;105460;-66
2022/06/04 04:44:17;;;;;;;5.40;5.00;;;;;;;16.30;100.00;96408.84;4916688;28;107072;-66
2022/06/04 04:46:45;;;;;;;7.10;5.57;;;;;;;16.38;100.00;96406.34;4926680;28;102125;-65
2022/06/04 04:49:21;;;;;;;6.73;5.70;;;;;;;16.46;100.00;96407.63;4932623;28;105545;-65
2022/06/04 04:51:49;;;;;;;5.83;5.33;;;;;;;16.56;100.00;96415.56;4933548;28;101911;-65
2022/06/04 04:54:17;;;;;;;6.00;5.37;;;;;;;16.68;100.00;96411.34;4934853;28;102591;-65
2022/06/04 04:56:45;;;;;;;7.43;6.67;;;;;;;16.87;100.00;96406.00;4933116;28;105406;-64
2022/06/04 04:59:12;;;;;;;6.53;6.00;;;;;;;17.03;100.00;96397.47;4933383;28;101948;-64
2022/06/04 05:01:41;;;;;;;6.07;5.30;;;;;;;17.11;100.00;96404.09;4915603;28;106683;-65
2022/06/04 05:04:08;;;;;;;5.67;5.17;;;;;;;17.25;100.00;96399.56;4913586;28;105670;-65
2022/06/04 05:06:36;;;;;;;5.47;4.97;;;;;;;17.42;100.00;96389.91;4913139;28;101923;-64
2022/06/04 05:09:04;;;;;;;7.13;5.90;;;;;;;17.52;100.00;96395.13;4916782;28;104152;-64
2022/06/04 05:11:33;;;;;;;6.00;5.40;;;;;;;17.65;100.00;96398.97;4913750;28;102010;-64
2022/06/04 05:14:02;;;;;;;5.93;5.30;;;;;;;17.78;100.00;96404.38;4915106;28;102467;-64
2022/06/04 05:16:38;;;;;;;5.90;5.40;;;;;;;17.93;100.00;96400.63;4913209;28;105914;-64
2022/06/04 05:19:52;;;;;;;6.63;6.07;;;;;;;18.15;100.00;96400.78;4901402;28;102015;-64
2022/06/04 05:22:21;;;;;;;6.80;6.20;;;;;;;18.21;100.00;96413.81;4934612;28;102514;-64
2022/06/04 05:25:06;;;;;;;8.87;6.57;;;;;;;17.88;100.00;96420.34;4922216;28;105480;-64
2022/06/04 05:27:34;;;;;;;6.90;5.87;;;;;;;18.00;100.00;96423.38;4913728;28;101817;-64
2022/06/04 05:30:02;;;;;;;6.07;5.47;;;;;;;18.21;100.00;96421.13;4913571;28;105638;-64
2022/06/04 05:32:30;;;;;;;6.43;5.90;;;;;;;18.34;100.00;96418.47;4916368;28;105554;-64
2022/06/04 05:35:09;;;;;;;6.43;4.97;;;;;;;18.54;100.00;96412.66;4925665;28;103626;-65
2022/06/04 05:37:39;;;;;;;5.40;4.90;;;;;;;18.67;100.00;96416.47;4932308;28;105497;-64
2022/06/04 05:40:08;;;;;;;6.43;5.33;;;;;;;18.77;100.00;96424.34;4932768;28;102080;-64
2022/06/04 05:42:36;;;;;;;4.87;4.40;;;;;;;18.86;100.00;96431.41;4916570;28;106754;-64
2022/06/04 05:45:06;;;;;;;4.67;4.23;;;;;;;18.78;100.00;96434.00;4931737;28;104252;-65
2022/06/04 05:47:34;;;;;;;5.27;4.20;;;;;;;18.75;100.00;96430.03;4932754;28;101811;-65
2022/06/04 05:50:02;;;;;;;4.63;4.00;;;;;;;18.99;100.00;96430.63;4932634;28;105311;-64
2022/06/04 05:52:30;;;;;;;5.33;3.80;;;;;;;19.18;100.00;96425.09;4931018;28;105594;-64
2022/06/04 05:55:10;;;;;;;7.90;4.13;;;;;;;19.13;100.00;96419.81;4935789;28;101968;-65
2022/06/04 05:57:38;;;;;;;4.23;3.63;;;;;;;19.18;100.00;96417.78;4932118;28;105685;-66
2022/06/04 06:00:08;;;;;;;4.30;3.90;;;;;;;19.31;100.00;96421.56;4917729;28;102066;-66
2022/06/04 06:02:39;;;;;;;4.33;3.33;;;;;;;19.50;100.00;96420.31;4915016;28;102996;-65
2022/06/04 06:05:07;;;;;;;3.60;3.30;;;;;;;19.76;100.00;96418.59;4931139;28;104415;-66
2022/06/04 06:07:35;;;;;;;4.47;3.27;;;;;;;19.85;100.00;96426.75;4932536;28;101958;-66
2022/06/04 06:10:05;;;;;;;3.97;3.40;;;;;;;19.95;100.00;96416.50;4932060;28;105281;-66
2022/06/04 06:12:33;;;;;;;3.23;3.03;;;;;;;20.07;100.00;96414.06;4925577;28;105499;-66
2022/06/04 06:19:05;;;;;;;4.67;3.03;;;;;;;20.37;100.00;96418.66;4897547;28;106142;-66
2022/06/04 06:21:34;;;;;;;3.97;3.20;;;;;;;20.61;100.00;96416.34;4922494;28;102057;-66
2022/06/04 06:24:02;;;;;;;3.73;2.83;;;;;;;20.70;100.00;96421.81;4927113;28;105226;-65
2022/06/04 06:26:32;;;;;;;5.07;2.60;;;;;;;20.82;100.00;96422.00;4929099;28;105769;-65
2022/06/04 06:29:04;;;;;;;5.33;2.90;;;;;;;21.03;100.00;96428.47;4913821;28;101985;-65
2022/06/04 06:31:33;;;;;;;5.33;2.93;;;;;;;20.87;100.00;96432.69;4914068;28;102055;-65
2022/06/04 06:34:01;;;;;;;4.23;2.90;;;;;;;21.02;100.00;96424.13;4911943;28;105845;-65
2022/06/04 06:36:31;;;;;;;3.47;3.00;;;;;;;21.03;100.00;96420.34;4912687;28;101905;-65
2022/06/04 06:38:58;;;;;;;4.37;3.03;;;;;;;21.06;100.00;96423.22;4932505;28;105207;-66
2022/06/04 06:41:27;;;;;;;3.20;2.90;;;;;;;21.22;100.00;96428.94;4919079;28;101955;-66
2022/06/04 06:43:55;;;;;;;5.77;2.70;;;;;;;21.10;100.00;96434.19;4927879;28;105262;-65
2022/06/04 06:46:43;;;;;;;4.20;2.80;;;;;;;21.33;100.00;96441.06;4919002;28;105666;-65
2022/06/04 06:49:43;;;;;;;2.90;2.70;;;;;;;21.21;100.00;96436.25;4928393;28;102129;-66
2022/06/04 06:52:11;;;;;;;4.00;2.57;;;;;;;21.63;100.00;96446.31;4929791;28;105562;-65
2022/06/04 06:58:01;;;;;;;2.90;2.70;;;;;;;21.69;100.00;96434.25;4928121;28;101904;-65
2022/06/04 07:00:28;;;;;;;2.97;2.50;;;;;;;21.94;100.00;96440.75;4913307;28;105376;-66
2022/06/04 07:02:57;;;;;;;3.57;2.97;;;;;;;21.98;100.00;96436.31;4915021;28;105520;-66
2022/06/04 07:05:25;;;;;;;4.60;3.00;;;;;;;22.32;100.00;96438.94;4908552;28;103257;-66
2022/06/04 07:07:52;;;;;;;3.13;2.50;;;;;;;22.13;100.00;96435.81;4911511;28;105612;-66
2022/06/04 07:10:20;;;;;;;3.33;2.50;;;;;;;22.38;100.00;96441.16;4923189;28;101974;-66
2022/06/04 07:12:48;;;;;;;2.80;2.60;;;;;;;22.69;100.00;96449.03;4930519;28;102722;-66
2022/06/04 07:15:15;;;;;;;3.17;2.70;;;;;;;22.52;100.00;96449.09;4930419;28;105901;-66
2022/06/04 07:17:43;;;;;;;2.87;2.60;;;;;;;22.33;100.00;96459.47;4928372;28;101974;-66
2022/06/04 07:20:13;;;;;;;3.50;2.43;;;;;;;22.33;100.00;96448.63;4899877;28;103850;-65
2022/06/04 07:22:40;;;;;;;7.27;2.50;;;;;;;22.61;100.00;96447.94;4910580;28;104729;-66
2022/06/04 07:25:33;;;;;;;7.03;2.40;;;;;;;22.50;100.00;96449.44;4916888;28;102483;-66
2022/06/04 07:28:01;;;;;;;2.63;2.23;;;;;;;22.50;100.00;96448.66;4920281;28;105689;-66
2022/06/04 07:30:29;;;;;;;2.80;2.50;;;;;;;22.62;100.00;96462.31;4930905;28;102069;-65
2022/06/04 07:32:56;;;;;;;5.00;2.63;;;;;;;22.60;100.00;96465.34;4926116;28;105208;-66
2022/06/04 07:35:31;;;;;;;3.20;2.20;;;;;;;22.61;100.00;96460.72;4912515;28;105850;-65
2022/06/04 07:37:59;;;;;;;3.83;2.27;;;;;;;22.74;100.00;96462.41;4913284;28;101947;-66
2022/06/04 07:40:27;;;;;;;3.10;2.20;;;;;;;22.94;100.00;96467.13;4895867;28;105283;-65
2022/06/04 07:42:57;;;;;;;4.03;2.63;;;;;;;23.01;100.00;96460.06;4922059;28;103159;-66
2022/06/04 07:45:31;;;;;;;5.23;2.50;;;;;;;23.08;100.00;96448.69;4911553;28;102267;-66
2022/06/04 07:47:59;;;;;;;4.53;2.57;;;;;;;23.42;100.00;96448.50;4928657;28;105273;-66
2022/06/04 07:50:27;;;;;;;3.20;2.43;;;;;;;23.38;100.00;96461.16;4929894;28;101886;-66
2022/06/04 07:52:58;;;;;;;2.70;2.50;;;;;;;23.41;100.00;96452.34;4925096;28;105549;-66
2022/06/04 07:55:27;;;;;;;4.47;2.63;;;;;;;23.87;100.00;96454.88;4929768;28;104589;-66
2022/06/04 07:57:56;;;;;;;2.93;2.70;;;;;;;23.59;100.00;96457.31;4914248;28;101951;-66
2022/06/04 08:00:24;;;;;;;3.37;2.27;;;;;;;23.82;100.00;96458.56;4923522;28;102803;-66
2022/06/04 08:02:52;;;;;;;7.40;2.30;;;;;;;24.07;100.00;96473.06;4910570;28;105465;-66
2022/06/04 08:05:19;;;;;;;3.27;2.60;;;;;;;24.31;100.00;96465.03;4908555;28;102301;-65
2022/06/04 08:07:46;;;;;;;4.73;2.30;;;;;;;24.59;100.00;96460.59;4912270;28;105883;-66
2022/06/04 08:10:16;;;;;;;2.63;2.20;;;;;;;24.25;100.00;96460.94;4919289;28;105699;-66
2022/06/04 08:12:46;;;;;;;5.00;2.40;;;;;;;24.20;100.00;96467.34;4923109;28;103034;-66
2022/06/04 08:15:48;;;;;;;3.33;2.20;;;;;;;24.78;100.00;96447.22;4925986;28;102598;-66
2022/06/04 08:18:16;;;;;;;2.73;2.00;;;;;;;24.76;100.00;96450.31;4913717;28;101912;-65
2022/06/04 08:20:44;;;;;;;6.93;2.37;;;;;;;24.77;100.00;96451.06;4912032;28;105594;-66
2022/06/04 08:23:12;;;;;;;3.40;2.40;;;;;;;25.08;100.00;96459.50;4896402;28;105653;-65
2022/06/04 08:25:45;;;;;;;2.90;2.43;;;;;;;25.18;100.00;96464.47;4907069;28;102004;-66
2022/06/04 08:28:14;;;;;;;6.27;2.50;;;;;;;25.38;100.00;96477.97;4921627;28;105264;-66
2022/06/04 08:30:42;;;;;;;4.53;2.47;;;;;;;25.16;100.00;96486.59;4914390;28;105561;-68
2022/06/04 08:33:10;;;;;;;3.93;2.10;;;;;;;25.54;100.00;96486.22;4928550;28;105238;-67
2022/06/04 08:39:00;;;;;;;3.50;1.90;;;;;;;25.07;100.00;96485.91;4902630;28;101992;-67
2022/06/04 08:41:43;;;;;;;2.83;2.10;;;;;;;24.90;100.00;96480.69;4911571;28;105286;-68
2022/06/04 08:44:17;;;;;;;3.90;1.73;;;;;;;25.13;100.00;96478.31;4928147;28;104565;-67
2022/06/04 08:46:53;;;;;;;4.80;2.03;;;;;;;25.18;100.00;96478.88;4930035;28;101765;-67
2022/06/04 08:50:02;;;;;;;3.00;1.93;;;;;;;25.49;100.00;96481.03;4926705;28;102798;-67
2022/06/04 08:52:34;;;;;;;2.83;2.20;;;;;;;25.65;100.00;96482.72;4910919;28;104814;-67
2022/06/04 08:58:15;;;;;;;3.40;2.20;;;;;;;25.47;100.00;96481.38;4926358;28;102886;-67
2022/06/04 09:00:50;;;;;;;2.60;2.00;;;;;;;25.10;100.00;96481.69;4899025;28;101835;-67
2022/06/04 09:03:21;;;;;;;4.07;1.83;;;;;;;25.26;100.00;96488.09;4920261;28;105729;-67
2022/06/04 09:06:09;;;;;;;3.77;1.97;;;;;;;25.37;100.00;96487.28;4911549;28;105460;-67
2022/06/04 09:08:43;;;;;;;2.83;2.07;;;;;;;25.00;100.00;96484.88;4930911;28;102313;-67
2022/06/04 09:11:14;;;;;;;2.80;1.50;;;;;;;25.04;100.00;96488.50;4923879;28;105247;-67
2022/06/04 09:13:57;;;;;;;5.50;1.40;;;;;;;24.91;100.00;96476.81;4916456;28;104681;-67
2022/06/04 09:16:50;;;;;;;2.07;1.53;;;;;;;25.20;100.00;96473.91;4910685;28;101907;-67
2022/06/04 09:20:12;;;;;;;2.60;1.20;;;;;;;25.17;100.00;96481.94;4915137;28;104110;-67
2022/06/04 09:22:44;;;;;;;2.23;1.10;;;;;;;25.05;100.00;96485.44;4916492;28;102376;-67
2022/06/04 09:25:14;;;;;;;2.57;1.20;;;;;;;25.15;100.00;96478.75;4933269;28;105606;-67
2022/06/04 09:27:45;;;;;;;2.80;1.30;;;;;;;25.39;100.00;96485.00;4925435;28;105601;-67
2022/06/04 09:30:22;;;;;;;2.33;1.03;;;;;;;25.32;100.00;96489.44;4913852;28;101900;-67
2022/06/04 09:33:27;;;;;;;1.07;1.00;;;;;;;25.46;100.00;96479.81;4921439;28;105239;-67
2022/06/04 09:35:57;;;;;;;1.93;1.30;;;;;;;25.66;100.00;96478.06;4913162;28;105737;-67
2022/06/04 09:38:27;;;;;;;1.53;1.10;;;;;;;26.02;100.00;96480.69;4918892;28;103592;-67
2022/06/04 09:41:00;;;;;;;2.30;1.10;;;;;;;25.67;100.00;96477.69;4921480;28;105669;-67
2022/06/04 09:43:29;;;;;;;3.50;1.40;;;;;;;25.69;100.00;96478.16;4923908;28;105666;-67
2022/06/04 09:46:01;;;;;;;2.30;1.30;;;;;;;25.95;100.00;96477.78;4920778;28;105267;-67
2022/06/04 09:48:33;;;;;;;1.73;1.27;;;;;;;25.89;100.00;96470.97;4930319;28;105435;-67
2022/06/04 09:51:02;;;;;;;2.70;1.10;;;;;;;25.61;100.00;96470.13;4931113;28;101946;-67
2022/06/04 09:53:32;;;;;;;1.87;1.30;;;;;;;25.71;100.00;96466.94;4922372;28;105386;-67
2022/06/04 09:56:40;;;;;;;2.37;1.20;;;;;;;25.84;100.00;96463.81;4919397;28;106144;-66
2022/06/04 09:59:19;;;;;;;1.50;0.93;;;;;;;26.15;100.00;96463.19;4915028;28;101888;-73
2022/06/04 10:01:57;;;;;;;2.83;1.30;;;;;;;26.34;99.71;96461.38;4914636;28;105634;-67
2022/06/04 10:04:35;;;;;;;1.10;1.00;;;;;;;26.49;96.77;96463.31;4918185;28;105403;-67
2022/06/04 10:07:07;;;;;;;2.60;1.10;;;;;;;26.29;97.44;96458.09;4928154;28;102122;-67
2022/06/04 10:13:42;;;;;;;2.80;1.17;;;;;;;26.48;95.90;96450.06;4929420;28;102479;-67
2022/06/04 10:15:20;;;;;;;1.67;1.00;;;;;;;27.34;100.00;96450.69;4912828;28;102764;-67
2022/06/04 10:18:28;;;;;;;1.87;1.20;;;;;;;26.57;95.42;96442.50;4930316;28;105500;-67
2022/06/04 10:21:02;;;;;;;2.63;1.30;;;;;;;27.29;97.00;96442.00;4932409;28;101887;-67
2022/06/04 10:23:41;;;;;;;1.90;1.40;;;;;;;27.55;90.82;96440.25;4930563;28;105241;-67
2022/06/04 10:26:57;;;;;;;3.10;1.13;;;;;;;28.23;87.07;96438.56;4930888;28;103084;-67
2022/06/04 10:29:41;;;;;;;4.77;1.40;;;;;;;27.08;89.60;96442.25;4893694;28;101814;-67
2022/06/04 10:32:19;;;;;;;1.47;1.03;;;;;;;26.43;96.29;96436.66;4899057;28;105595;-67
2022/06/04 10:35:28;;;;;;;2.70;1.20;;;;;;;27.00;96.88;96429.56;4913596;28;101991;-67
2022/06/04 10:38:13;;;;;;;2.60;1.20;;;;;;;28.08;88.34;96422.25;4931764;28;105380;-67
2022/06/04 10:40:53;;;;;;;2.53;1.00;;;;;;;28.41;79.44;96422.50;4918024;28;104635;-67
2022/06/04 10:43:35;;;;;;;4.13;1.37;;;;;;;28.83;84.50;96417.78;4913398;28;101991;-67
2022/06/04 10:46:25;;;;;;;6.37;4.27;;;;;;;29.39;74.07;96418.69;4913503;28;104102;-67
2022/06/04 10:49:22;;;;;;;3.70;2.27;;;;;;;29.77;72.08;96408.28;4924364;28;105766;-67
2022/06/04 10:51:55;;;;;;;3.72;1.20;;;;;;;30.01;60.45;96407.78;4910990;28;102151;-67
2022/06/04 10:54:35;;;;;;;3.55;0.85;;;;;;;30.22;58.54;96407.25;4934409;28;105452;-67
2022/06/04 10:57:17;;;;;;;2.58;1.30;;;;;;;30.10;53.63;96396.53;4915827;28;101949;-67
2022/06/04 10:59:53;;;;;;;3.35;1.10;;;;;;;30.36;56.97;96397.22;4912416;28;105158;-67
2022/06/04 11:02:27;;;;;;;7.55;5.82;;;;;;;30.22;52.44;96391.59;4927222;28;105626;-67
2022/06/04 11:04:58;;;;;;;9.13;8.15;;;;;;;30.25;55.70;96388.09;4912362;28;101988;-67
2022/06/04 11:07:37;;;;;;;1.98;1.10;;;;;;;28.95;48.88;96382.00;4927587;28;106158;-67
2022/06/04 11:10:09;;;;;;;5.72;4.50;;;;;;;29.24;47.41;96392.22;4911620;28;106070;-67
2022/06/04 11:12:43;;;;;;;2.88;1.10;;;;;;;28.92;47.11;96382.72;4912110;28;101931;-67
2022/06/04 11:15:21;;;;;;;3.05;1.30;;;;;;;28.95;45.46;96377.31;4912458;28;105333;-67
2022/06/04 11:18:40;;;;;;;2.90;0.90;;;;;;;29.33;44.31;96368.09;4904834;28;103051;-67
2022/06/04 11:21:24;;;;;;;1.65;0.75;;;;;;;30.31;46.36;96364.66;4920870;28;102837;-67
2022/06/04 11:23:57;;;;;;;3.00;1.42;;;;;;;30.36;49.24;96364.28;4920428;28;104401;-67
2022/06/04 11:27:09;;;;;;;2.25;0.90;;;;;;;30.07;51.50;96361.63;4920064;28;102169;-67
2022/06/04 11:29:41;;;;;;;8.48;1.42;;;;;;;30.67;50.72;96358.34;4894870;28;105266;-67
2022/06/04 11:32:16;;;;;;;2.67;1.10;;;;;;;31.01;49.57;96357.03;4915301;28;105204;-67
2022/06/04 11:38:29;;;;;;;1.30;1.00;;;;;;;31.67;47.35;96355.88;4930308;28;105223;-67
2022/06/04 11:41:04;;;;;;;2.65;1.20;;;;;;;31.18;47.47;96350.09;4929135;28;105576;-67
2022/06/04 11:43:46;;;;;;;0.95;0.80;;;;;;;31.22;45.81;96339.94;4917036;28;103580;-67
2022/06/04 11:46:28;;;;;;;2.50;1.13;;;;;;;31.49;47.43;96346.75;4912344;28;105100;-67
2022/06/04 11:49:18;;;;;;;3.80;1.30;;;;;;;31.59;48.58;96346.81;4907590;28;101973;-67
2022/06/04 11:52:03;;;;;;;4.35;1.30;;;;;;;31.40;49.00;96338.06;4924086;28;105784;-67
2022/06/04 11:54:50;;;;;;;1.75;1.05;;;;;;;29.74;55.69;96334.22;4910969;28;105991;-67
2022/06/04 11:57:25;;;;;;;3.38;1.30;;;;;;;28.79;62.49;96329.31;4915424;28;101959;-67
2022/06/04 12:00:05;;;;;;;3.05;1.05;;;;;;;29.70;63.25;96325.16;4919227;28;105464;-67
2022/06/04 12:02:48;;;;;;;2.78;1.20;;;;;;;30.23;75.73;96327.31;4910797;28;105513;-67
2022/06/04 12:05:30;;;;;;;3.95;0.98;;;;;;;30.46;60.55;96325.19;4911550;28;102205;-67
2022/06/04 12:08:04;;;;;;;0.95;0.93;;;;;;;31.23;63.45;96330.53;4872031;28;105869;-67
2022/06/04 12:10:55;;;;;;;1.75;0.98;;;;;;;31.67;52.02;96329.19;4873659;28;103459;-67
2022/06/04 12:13:30;;;;;;;4.13;1.10;;;;;;;31.61;56.98;96330.69;4854664;28;105176;-67
2022/06/04 12:16:05;;;;;;;4.53;1.10;;;;;;;31.31;55.10;96332.13;4872644;28;105529;-67
2022/06/04 12:18:57;;;;;;;3.00;1.25;;;;;;;30.90;53.06;96323.19;4868298;28;101876;-67
2022/06/04 12:24:34;;;;;;;3.03;1.10;;;;;;;29.74;56.28;96326.78;4854023;28;103242;-67
2022/06/04 12:27:23;;;;;;;4.20;1.35;;;;;;;30.91;59.40;96324.00;4864373;28;101863;-67
2022/06/04 12:29:52;;;;;;;2.72;1.35;;;;;;;31.29;60.45;96328.97;4872710;28;105113;-66
2022/06/04 12:32:24;;;;;;;1.50;1.05;;;;;;;31.97;51.20;96320.63;4868386;28;105465;-66
2022/06/04 12:35:34;;;;;;;2.65;1.27;;;;;;;32.19;50.58;96327.75;4854146;28;105345;-66
2022/06/04 12:38:13;;;;;;;2.10;1.20;;;;;;;31.60;47.08;96325.59;4841808;29;107383;-67
2022/06/04 12:40:44;;;;;;;3.35;1.40;;;;;;;29.56;50.35;96319.50;4853897;29;101834;-67
2022/06/04 12:43:31;;;;;;;3.95;1.40;;;;;;;29.67;53.17;96309.44;4867910;28;105575;-66